Time;durP1;ratioP1;P1;durP2;ratioP2;P2;SDS_P1;SDS_P2;PMS_P1;PMS_P2;Temp;Humidity;BMP_temperature;BMP_pressure;BME280_temperature;BME280_humidity;BME280_pressure;Samples;Min_cycle;Max_cycle;Signal;HPM_P1;HPM_P2
2023/01/05 00:01:34;;;;;;;10.27;5.80;;;11.70;99.90;;;;;;5053717;28;20190;-62
2023/01/05 00:04:00;;;;;;;7.23;6.80;;;11.70;99.90;;;;;;5053595;28;20182;-62
2023/01/05 00:06:26;;;;;;;5.43;4.90;;;11.60;99.90;;;;;;5053843;28;20179;-63
2023/01/05 00:08:51;;;;;;;5.37;4.97;;;11.60;99.90;;;;;;5053321;28;20218;-63
2023/01/05 00:22:30;;;;;;;8.97;4.73;;;11.60;99.90;;;;;;5034601;28;20316;-62
2023/01/05 00:25:02;;;;;;;7.80;5.53;;;11.50;99.90;;;;;;5053279;28;20182;-63
2023/01/05 00:27:28;;;;;;;9.77;6.80;;;11.50;99.90;;;;;;5052410;28;20179;-63
2023/01/05 00:29:54;;;;;;;6.17;5.53;;;11.50;99.90;;;;;;5052803;28;20189;-64
2023/01/05 00:32:20;;;;;;;6.00;5.50;;;11.50;99.90;;;;;;5052750;28;20214;-63
2023/01/05 00:34:46;;;;;;;7.93;4.93;;;11.50;99.90;;;;;;5052661;28;20183;-62
2023/01/05 00:37:11;;;;;;;6.07;5.63;;;11.50;99.90;;;;;;5052443;28;20209;-62
2023/01/05 00:39:37;;;;;;;8.33;6.33;;;11.50;99.90;;;;;;5052256;28;20659;-62
2023/01/05 00:42:03;;;;;;;6.33;5.93;;;11.50;99.90;;;;;;5052680;28;20214;-62
2023/01/05 00:44:28;;;;;;;14.67;7.60;;;11.50;99.90;;;;;;5051745;28;20175;-61
2023/01/05 00:46:54;;;;;;;7.90;6.17;;;11.50;99.90;;;;;;5052352;28;20190;-62
2023/01/05 00:49:19;;;;;;;6.23;5.90;;;11.50;99.90;;;;;;5052131;28;20782;-63
2023/01/05 00:51:45;;;;;;;6.73;6.13;;;11.50;99.90;;;;;;5052144;28;20210;-62
2023/01/05 00:54:11;;;;;;;6.20;5.70;;;11.50;99.90;;;;;;5052449;28;20685;-62
2023/01/05 00:56:36;;;;;;;6.13;5.73;;;11.40;99.90;;;;;;5052249;28;20218;-62
2023/01/05 00:59:02;;;;;;;7.40;5.63;;;11.50;99.90;;;;;;5052393;28;20236;-63
2023/01/05 01:01:27;;;;;;;6.70;6.10;;;11.40;99.90;;;;;;5051516;28;20199;-63
2023/01/05 01:03:54;;;;;;;6.93;6.10;;;11.40;99.90;;;;;;5052561;28;20221;-62
2023/01/05 01:06:20;;;;;;;20.13;5.43;;;11.40;99.90;;;;;;5052183;28;20185;-63
2023/01/05 01:08:45;;;;;;;6.27;5.10;;;11.40;99.90;;;;;;5051473;28;20179;-63
2023/01/05 01:11:11;;;;;;;9.07;5.23;;;11.40;99.90;;;;;;5051608;28;20715;-62
2023/01/05 01:13:39;;;;;;;8.07;6.03;;;11.40;99.90;;;;;;5051856;28;20182;-62
2023/01/05 01:16:13;;;;;;;6.03;5.53;;;11.40;99.90;;;;;;5052127;28;20196;-63
2023/01/05 01:18:40;;;;;;;5.57;5.07;;;11.40;99.90;;;;;;5032112;28;20203;-63
2023/01/05 01:21:06;;;;;;;11.23;6.10;;;11.40;99.90;;;;;;5031574;28;20209;-62
2023/01/05 01:23:36;;;;;;;10.13;5.70;;;11.40;99.90;;;;;;5051040;28;20240;-62
2023/01/05 01:26:10;;;;;;;8.97;5.50;;;11.40;99.90;;;;;;5052172;28;20167;-62
2023/01/05 01:28:36;;;;;;;13.07;6.57;;;11.40;99.90;;;;;;5051571;28;20232;-62
2023/01/05 01:31:03;;;;;;;9.20;5.20;;;11.30;99.90;;;;;;5051669;28;20211;-63
2023/01/05 01:33:29;;;;;;;6.37;5.73;;;11.40;99.90;;;;;;5051635;28;20229;-62
2023/01/05 01:35:55;;;;;;;9.00;5.83;;;11.30;99.90;;;;;;5051482;28;20218;-63
2023/01/05 01:38:21;;;;;;;5.60;5.10;;;11.30;99.90;;;;;;5051669;28;20283;-63
2023/01/05 01:40:47;;;;;;;11.20;5.97;;;11.30;99.90;;;;;;5051070;28;20650;-63
2023/01/05 01:43:15;;;;;;;6.17;5.47;;;11.30;99.90;;;;;;5051769;28;20185;-63
2023/01/05 01:45:41;;;;;;;7.57;5.97;;;11.30;99.90;;;;;;5050311;28;20190;-63
2023/01/05 01:48:11;;;;;;;7.73;6.63;;;11.30;99.90;;;;;;5051852;28;20677;-63
2023/01/05 01:50:42;;;;;;;7.23;5.23;;;11.30;99.90;;;;;;5050900;28;20540;-63
2023/01/05 01:53:21;;;;;;;6.80;5.37;;;11.30;99.90;;;;;;5051377;28;20186;-62
2023/01/05 01:55:48;;;;;;;13.97;5.87;;;11.30;99.90;;;;;;5051435;28;20253;-63
2023/01/05 01:58:16;;;;;;;6.40;5.67;;;11.30;99.90;;;;;;5051210;28;20668;-63
2023/01/05 02:00:42;;;;;;;7.33;5.13;;;11.20;99.90;;;;;;5051352;28;20210;-63
2023/01/05 02:03:09;;;;;;;9.30;5.43;;;11.20;99.90;;;;;;5051382;28;20582;-63
2023/01/05 02:05:36;;;;;;;11.87;6.03;;;11.20;99.90;;;;;;5051365;28;20182;-63
2023/01/05 02:08:03;;;;;;;11.70;6.13;;;11.20;99.90;;;;;;5051514;28;20185;-63
2023/01/05 02:10:40;;;;;;;8.60;5.27;;;11.20;99.90;;;;;;5051274;28;20175;-63
2023/01/05 02:13:19;;;;;;;8.50;5.90;;;11.20;99.90;;;;;;5051276;28;20643;-63
2023/01/05 02:16:26;;;;;;;9.40;5.73;;;11.20;99.90;;;;;;5037998;28;20190;-63
2023/01/05 02:19:13;;;;;;;7.00;5.50;;;11.20;99.90;;;;;;5013767;28;20688;-63
2023/01/05 02:21:52;;;;;;;8.17;6.13;;;11.10;99.90;;;;;;5034821;28;20234;-63
2023/01/05 02:24:30;;;;;;;8.30;5.53;;;11.10;99.90;;;;;;5052484;28;20201;-63
2023/01/05 02:27:10;;;;;;;9.23;6.10;;;11.00;99.90;;;;;;5055201;28;20179;-63
2023/01/05 02:30:13;;;;;;;12.97;7.27;;;10.90;99.90;;;;;;5054434;28;20183;-63
2023/01/05 02:32:51;;;;;;;7.73;5.57;;;10.80;99.90;;;;;;5054604;28;20617;-62
2023/01/05 02:35:35;;;;;;;7.27;6.43;;;10.70;99.90;;;;;;5055099;28;20213;-63
2023/01/05 02:38:14;;;;;;;6.30;4.90;;;10.70;99.90;;;;;;5054592;28;20683;-62
2023/01/05 02:40:47;;;;;;;6.83;5.67;;;10.70;99.90;;;;;;5054596;28;20555;-63
2023/01/05 02:43:19;;;;;;;8.17;5.83;;;10.60;99.90;;;;;;5054817;28;20617;-63
2023/01/05 02:45:45;;;;;;;17.60;6.40;;;10.60;99.90;;;;;;5053581;28;20615;-63
2023/01/05 02:48:10;;;;;;;11.17;6.20;;;10.70;99.90;;;;;;5054547;28;20181;-62
2023/01/05 02:51:11;;;;;;;11.53;5.40;;;10.70;99.90;;;;;;5054082;28;20205;-63
2023/01/05 02:53:41;;;;;;;8.20;5.90;;;10.70;99.90;;;;;;5050362;28;20183;-63
2023/01/05 02:56:19;;;;;;;7.93;6.43;;;10.70;99.90;;;;;;5054746;28;20265;-62
2023/01/05 02:58:51;;;;;;;9.47;5.83;;;10.80;99.90;;;;;;5054270;28;20198;-62
2023/01/05 03:01:38;;;;;;;10.33;5.80;;;10.80;99.90;;;;;;5037289;28;20671;-63
2023/01/05 03:04:14;;;;;;;6.43;5.77;;;10.80;99.90;;;;;;5054134;28;20182;-63
2023/01/05 03:06:47;;;;;;;7.57;6.23;;;10.80;99.90;;;;;;5054492;28;20583;-62
2023/01/05 03:09:16;;;;;;;15.93;6.03;;;10.80;99.90;;;;;;5053663;28;20197;-63
2023/01/05 03:14:49;;;;;;;7.03;5.37;;;10.80;99.90;;;;;;5054319;28;20266;-62
2023/01/05 03:17:20;;;;;;;6.03;5.43;;;10.80;99.90;;;;;;5054038;28;20213;-63
2023/01/05 03:19:49;;;;;;;6.90;6.30;;;10.80;99.90;;;;;;5053716;28;20175;-62
2023/01/05 03:37:03;;;;;;;14.27;6.03;;;10.70;99.90;;;;;;5053706;28;20240;-63
2023/01/05 03:39:30;;;;;;;8.47;5.67;;;10.80;99.90;;;;;;5053447;28;20185;-63
2023/01/05 03:41:55;;;;;;;6.03;4.87;;;10.70;99.90;;;;;;5053309;28;20202;-63
2023/01/05 03:44:21;;;;;;;12.47;5.40;;;10.70;99.90;;;;;;5053853;28;20213;-63
2023/01/05 03:46:47;;;;;;;11.30;6.20;;;10.70;99.90;;;;;;5053494;28;20564;-63
2023/01/05 03:49:13;;;;;;;19.20;6.10;;;10.70;99.90;;;;;;5053312;28;20179;-62
2023/01/05 03:51:39;;;;;;;9.83;6.07;;;10.60;99.90;;;;;;5052966;28;20190;-63
2023/01/05 03:54:04;;;;;;;8.97;5.60;;;10.70;99.90;;;;;;5053612;28;20651;-62
2023/01/05 03:56:30;;;;;;;7.63;5.13;;;10.70;99.90;;;;;;5053282;28;20174;-63
2023/01/05 03:58:55;;;;;;;8.37;5.93;;;10.70;99.90;;;;;;5053693;28;20207;-63
2023/01/05 04:01:21;;;;;;;7.93;5.97;;;10.80;99.90;;;;;;5053603;28;20191;-63
2023/01/05 04:03:46;;;;;;;6.73;6.10;;;10.80;99.90;;;;;;5053204;28;20175;-62
2023/01/05 04:06:12;;;;;;;5.83;5.33;;;10.80;99.90;;;;;;5053455;28;20174;-63
2023/01/05 04:08:38;;;;;;;16.97;5.63;;;10.90;99.90;;;;;;5053272;28;20183;-63
2023/01/05 04:11:16;;;;;;;8.33;5.43;;;10.80;99.90;;;;;;5052471;28;20203;-63
2023/01/05 04:13:41;;;;;;;8.63;5.63;;;10.80;99.90;;;;;;5053045;28;20197;-62
2023/01/05 04:16:08;;;;;;;12.73;6.17;;;10.80;99.90;;;;;;5052932;28;20179;-63
2023/01/05 04:18:34;;;;;;;10.63;6.77;;;10.80;99.90;;;;;;5052781;28;20687;-63
2023/01/05 04:20:59;;;;;;;10.77;6.20;;;10.80;99.90;;;;;;5052697;28;20281;-62
2023/01/05 04:23:25;;;;;;;10.10;6.43;;;10.80;99.90;;;;;;5052795;28;20245;-62
2023/01/05 04:25:50;;;;;;;12.73;6.23;;;10.80;99.90;;;;;;5052788;28;20198;-63
2023/01/05 04:28:16;;;;;;;5.87;5.07;;;10.80;99.90;;;;;;5052791;28;20187;-62
2023/01/05 04:30:43;;;;;;;13.60;5.93;;;10.90;99.90;;;;;;5052265;28;20206;-63
2023/01/05 04:33:09;;;;;;;8.67;5.67;;;11.00;99.90;;;;;;5052641;28;20179;-63
2023/01/05 04:35:35;;;;;;;8.97;6.67;;;11.00;99.90;;;;;;5052468;28;20244;-63
2023/01/05 04:38:00;;;;;;;9.87;7.00;;;11.00;99.90;;;;;;5052482;28;20210;-63
2023/01/05 04:40:26;;;;;;;8.27;7.33;;;11.00;99.90;;;;;;5052429;28;20178;-63
2023/01/05 04:42:51;;;;;;;7.00;6.40;;;11.10;99.90;;;;;;5052120;28;20175;-63
2023/01/05 04:45:17;;;;;;;18.67;6.90;;;11.00;99.90;;;;;;5052232;28;20724;-62
2023/01/05 04:47:43;;;;;;;9.83;6.23;;;10.90;99.90;;;;;;5052085;28;20182;-63
2023/01/05 04:50:09;;;;;;;5.77;5.37;;;10.80;99.90;;;;;;5052264;28;20233;-63
2023/01/05 04:52:35;;;;;;;11.27;4.90;;;10.60;99.90;;;;;;5052320;28;20199;-64
2023/01/05 04:55:00;;;;;;;8.37;5.30;;;10.40;99.90;;;;;;5052303;28;20197;-63
2023/01/05 04:57:26;;;;;;;8.00;4.63;;;10.30;99.90;;;;;;5052311;28;20285;-63
2023/01/05 04:59:51;;;;;;;9.67;5.97;;;10.20;99.90;;;;;;5051561;28;20179;-63
2023/01/05 05:02:17;;;;;;;9.13;6.50;;;10.20;99.90;;;;;;5052111;28;20213;-63
2023/01/05 05:04:42;;;;;;;9.57;5.60;;;10.10;99.90;;;;;;5051964;28;20553;-63
2023/01/05 05:07:08;;;;;;;10.43;5.90;;;10.10;99.90;;;;;;5052245;28;20197;-63
2023/01/05 05:09:34;;;;;;;7.40;4.80;;;10.10;99.90;;;;;;5051546;28;20214;-63
2023/01/05 05:11:59;;;;;;;9.17;6.03;;;10.10;99.90;;;;;;5052254;28;20207;-63
2023/01/05 05:14:25;;;;;;;18.63;6.00;;;10.00;99.90;;;;;;5051789;28;20652;-62
2023/01/05 05:16:50;;;;;;;10.73;5.90;;;10.00;99.90;;;;;;5051932;28;20182;-63
2023/01/05 05:19:16;;;;;;;11.87;6.73;;;10.00;99.90;;;;;;5050998;28;20266;-62
2023/01/05 05:21:41;;;;;;;15.33;7.13;;;10.00;99.90;;;;;;5051594;28;20213;-62
2023/01/05 05:24:07;;;;;;;18.93;7.50;;;10.00;99.90;;;;;;5051642;28;20206;-63
2023/01/05 05:26:33;;;;;;;9.67;6.00;;;10.00;99.90;;;;;;5052110;28;20182;-62
2023/01/05 05:28:58;;;;;;;13.53;6.43;;;10.00;99.90;;;;;;5051671;28;20187;-63
2023/01/05 05:31:24;;;;;;;10.87;5.97;;;10.00;99.90;;;;;;5051511;28;20218;-63
2023/01/05 05:33:50;;;;;;;23.57;5.77;;;10.00;99.90;;;;;;5051315;28;20195;-63
2023/01/05 05:36:19;;;;;;;18.93;6.47;;;10.00;99.90;;;;;;5050691;28;20209;-63
2023/01/05 05:38:45;;;;;;;5.93;5.20;;;10.10;99.90;;;;;;5051559;28;20234;-63
2023/01/05 05:41:10;;;;;;;5.80;5.23;;;10.10;99.90;;;;;;5051067;28;20199;-63
2023/01/05 05:43:36;;;;;;;14.97;7.30;;;10.10;99.90;;;;;;5051465;28;20186;-63
2023/01/05 05:46:01;;;;;;;11.03;6.00;;;10.10;99.90;;;;;;5051359;28;20261;-63
2023/01/05 05:48:27;;;;;;;19.30;5.97;;;10.10;99.90;;;;;;5051458;28;20178;-63
2023/01/05 05:50:53;;;;;;;6.80;5.50;;;10.10;99.90;;;;;;5051126;28;20214;-63
2023/01/05 05:53:19;;;;;;;14.23;6.20;;;10.10;99.90;;;;;;5051346;28;20186;-63
2023/01/05 05:55:49;;;;;;;9.20;6.13;;;10.20;99.90;;;;;;5050927;28;20179;-63
2023/01/05 05:58:16;;;;;;;5.93;5.37;;;10.20;99.90;;;;;;5051179;28;20292;-63
2023/01/05 06:00:41;;;;;;;11.50;6.50;;;10.20;99.90;;;;;;5050816;28;20232;-63
2023/01/05 06:03:07;;;;;;;18.97;6.13;;;10.20;99.90;;;;;;5051049;28;20171;-63
2023/01/05 06:05:33;;;;;;;7.80;5.47;;;10.30;99.90;;;;;;5051095;28;20171;-63
2023/01/05 06:07:58;;;;;;;11.20;6.53;;;10.30;99.90;;;;;;5051006;28;20258;-63
2023/01/05 06:10:24;;;;;;;11.57;5.87;;;10.30;99.90;;;;;;5050855;28;20556;-63
2023/01/05 06:12:52;;;;;;;16.10;6.50;;;10.30;99.90;;;;;;5051255;28;20175;-63
2023/01/05 06:15:18;;;;;;;7.37;6.80;;;10.30;99.90;;;;;;5051104;28;20179;-63
2023/01/05 06:17:45;;;;;;;9.00;6.53;;;10.40;99.90;;;;;;5051001;28;20969;-63
2023/01/05 06:20:11;;;;;;;13.03;6.40;;;10.40;99.90;;;;;;5051020;28;20171;-63
2023/01/05 06:22:37;;;;;;;7.83;5.80;;;10.40;99.90;;;;;;5051105;28;20566;-63
2023/01/05 06:25:03;;;;;;;12.93;6.90;;;10.40;99.90;;;;;;5050972;28;20186;-63
2023/01/05 06:27:28;;;;;;;22.47;6.47;;;10.50;99.90;;;;;;5051171;28;20206;-63
2023/01/05 06:29:54;;;;;;;6.47;5.97;;;10.50;99.90;;;;;;5050424;28;20224;-63
2023/01/05 06:32:20;;;;;;;11.83;7.77;;;10.50;99.90;;;;;;5050862;28;20324;-63
2023/01/05 06:34:45;;;;;;;7.17;5.57;;;10.50;99.90;;;;;;5050614;28;20228;-63
2023/01/05 06:37:11;;;;;;;15.20;5.80;;;10.50;99.90;;;;;;5051158;28;20199;-63
2023/01/05 06:39:37;;;;;;;10.50;5.13;;;10.60;99.90;;;;;;5050438;28;20174;-63
2023/01/05 06:42:02;;;;;;;7.20;6.70;;;10.60;99.90;;;;;;5050949;28;20222;-63
2023/01/05 06:44:28;;;;;;;7.47;5.53;;;10.60;99.90;;;;;;5050759;28;20175;-63
2023/01/05 06:46:53;;;;;;;14.63;7.07;;;10.60;99.90;;;;;;5051039;28;20190;-63
2023/01/05 06:49:19;;;;;;;11.67;7.00;;;10.60;99.90;;;;;;5050546;28;20179;-63
2023/01/05 06:51:44;;;;;;;17.67;6.97;;;10.60;99.90;;;;;;5050323;28;20202;-63
2023/01/05 06:54:10;;;;;;;20.43;7.80;;;10.70;99.90;;;;;;5050738;28;20651;-63
2023/01/05 06:56:36;;;;;;;8.77;6.27;;;10.70;99.90;;;;;;5032730;28;20175;-63
2023/01/05 06:59:01;;;;;;;6.87;6.23;;;10.70;99.90;;;;;;5050930;28;20210;-63
2023/01/05 07:01:27;;;;;;;15.67;7.50;;;10.70;99.90;;;;;;5050254;28;20257;-63
2023/01/05 07:03:52;;;;;;;18.03;7.37;;;10.70;99.90;;;;;;5050674;28;20264;-63
2023/01/05 07:06:18;;;;;;;12.40;7.10;;;10.70;99.90;;;;;;5032885;28;20171;-62
2023/01/05 07:08:44;;;;;;;10.03;9.13;;;10.70;99.90;;;;;;5054050;28;20187;-64
2023/01/05 07:11:09;;;;;;;12.43;6.27;;;10.70;99.90;;;;;;5054226;28;20194;-64
2023/01/05 07:13:35;;;;;;;9.00;6.00;;;10.70;99.90;;;;;;5053979;28;20659;-63
2023/01/05 07:16:01;;;;;;;6.53;5.60;;;10.70;99.90;;;;;;5054355;28;20187;-63
2023/01/05 07:18:26;;;;;;;12.87;6.93;;;10.80;99.90;;;;;;5051705;28;20245;-63
2023/01/05 07:20:52;;;;;;;8.93;6.60;;;10.80;99.90;;;;;;5035078;28;20215;-62
2023/01/05 07:23:19;;;;;;;8.10;5.40;;;10.80;99.90;;;;;;5035753;28;20214;-63
2023/01/05 07:25:44;;;;;;;8.40;5.50;;;10.80;99.90;;;;;;5053439;28;20179;-63
2023/01/05 07:28:10;;;;;;;8.63;6.60;;;10.80;99.90;;;;;;5053905;28;20182;-63
2023/01/05 07:30:36;;;;;;;6.53;5.93;;;10.80;99.90;;;;;;5053387;28;20637;-63
2023/01/05 07:33:01;;;;;;;12.27;7.00;;;10.80;99.90;;;;;;5093544;22;20232;-64
2023/01/05 07:35:27;;;;;;;9.07;6.27;;;10.80;99.90;;;;;;5074310;28;20537;-65
2023/01/05 07:37:56;;;;;;;10.47;6.30;;;10.80;99.90;;;;;;5071949;28;20210;-64
2023/01/05 07:40:22;;;;;;;13.27;6.67;;;10.80;99.90;;;;;;5073906;28;20166;-65
2023/01/05 07:42:51;;;;;;;15.73;7.77;;;10.80;99.90;;;;;;5057338;28;20356;-65
2023/01/05 07:45:17;;;;;;;13.47;7.23;;;10.90;99.90;;;;;;5054023;28;20321;-64
2023/01/05 07:47:43;;;;;;;7.93;5.87;;;10.90;99.90;;;;;;5053571;28;20190;-65
2023/01/05 07:50:09;;;;;;;9.23;5.00;;;10.90;99.90;;;;;;5053283;28;20182;-64
2023/01/05 07:52:34;;;;;;;23.43;9.50;;;10.90;99.90;;;;;;5052289;28;20292;-65
2023/01/05 07:55:00;;;;;;;12.97;6.70;;;10.90;99.90;;;;;;5053771;28;20245;-64
2023/01/05 07:57:25;;;;;;;20.77;7.63;;;10.90;99.90;;;;;;5053475;28;20197;-64
2023/01/05 07:59:51;;;;;;;8.67;6.87;;;10.90;99.90;;;;;;5052981;28;20179;-65
2023/01/05 08:02:17;;;;;;;18.47;7.17;;;10.90;99.90;;;;;;5053654;28;20187;-65
2023/01/05 08:04:42;;;;;;;11.77;6.33;;;10.90;99.90;;;;;;5053795;28;20248;-64
2023/01/05 08:07:10;;;;;;;13.43;7.37;;;11.00;99.90;;;;;;5054266;28;20606;-64
2023/01/05 08:12:27;;;;;;;17.27;8.43;;;11.00;99.90;;;;;;5015860;28;20207;-64
2023/01/05 08:14:53;;;;;;;10.20;5.93;;;10.90;99.90;;;;;;5049131;28;20187;-64
2023/01/05 08:17:19;;;;;;;15.43;7.00;;;11.00;99.90;;;;;;5053209;28;20191;-64
2023/01/05 08:19:44;;;;;;;6.50;5.97;;;11.00;99.90;;;;;;5052024;28;20224;-64
2023/01/05 08:22:10;;;;;;;18.73;7.73;;;11.00;99.90;;;;;;5053237;28;20191;-64
2023/01/05 08:24:35;;;;;;;8.83;7.47;;;11.00;99.90;;;;;;5053439;28;20640;-64
2023/01/05 08:27:01;;;;;;;13.40;6.90;;;11.00;99.90;;;;;;5053484;28;20213;-64
2023/01/05 08:29:27;;;;;;;13.03;6.33;;;10.90;99.90;;;;;;5052848;28;20658;-64
2023/01/05 08:31:53;;;;;;;15.57;6.70;;;10.90;99.90;;;;;;5052783;28;20647;-64
2023/01/05 08:34:18;;;;;;;5.73;5.20;;;10.90;99.90;;;;;;5053419;28;20202;-63
2023/01/05 08:36:45;;;;;;;7.33;5.80;;;10.80;99.90;;;;;;5053111;28;20175;-64
2023/01/05 08:39:11;;;;;;;6.73;6.00;;;10.80;99.90;;;;;;5052998;28;20233;-63
2023/01/05 08:41:38;;;;;;;11.37;6.80;;;10.90;99.90;;;;;;5052963;28;20194;-63
2023/01/05 08:44:07;;;;;;;9.73;5.87;;;10.90;99.90;;;;;;5052897;28;20632;-65
2023/01/05 08:46:34;;;;;;;20.23;6.63;;;11.00;99.90;;;;;;5052635;28;20179;-64
2023/01/05 08:49:02;;;;;;;12.53;7.20;;;11.00;99.90;;;;;;5044429;28;20190;-63
2023/01/05 08:51:29;;;;;;;7.27;5.70;;;11.10;99.90;;;;;;5032476;28;20202;-63
2023/01/05 08:53:55;;;;;;;18.70;6.20;;;11.10;99.90;;;;;;5049029;28;20177;-64
2023/01/05 08:56:23;;;;;;;8.57;5.50;;;11.20;99.90;;;;;;5052779;28;20179;-63
2023/01/05 08:58:49;;;;;;;11.97;6.20;;;11.20;99.90;;;;;;5052582;28;20207;-63
2023/01/05 09:01:17;;;;;;;11.97;5.80;;;11.20;99.90;;;;;;5052626;28;20564;-64
2023/01/05 09:03:42;;;;;;;7.17;6.33;;;11.30;99.90;;;;;;5052469;28;20595;-64
2023/01/05 09:06:10;;;;;;;20.23;7.50;;;11.40;99.90;;;;;;5052317;28;20198;-63
2023/01/05 09:08:37;;;;;;;14.83;7.27;;;11.50;99.90;;;;;;5052508;28;20171;-64
2023/01/05 09:11:29;;;;;;;15.07;7.13;;;11.60;99.90;;;;;;5051946;28;20171;-64
2023/01/05 09:13:58;;;;;;;13.60;5.87;;;11.60;99.90;;;;;;5049435;28;20190;-64
2023/01/05 09:16:26;;;;;;;8.87;5.50;;;11.60;99.90;;;;;;5052479;28;20281;-64
2023/01/05 09:18:52;;;;;;;7.27;6.07;;;11.60;99.90;;;;;;5052712;28;20206;-63
2023/01/05 09:21:18;;;;;;;9.03;7.13;;;11.60;99.90;;;;;;5052128;28;20187;-64
2023/01/05 09:23:44;;;;;;;14.47;6.03;;;11.50;99.90;;;;;;5049993;28;20193;-64
2023/01/05 09:26:11;;;;;;;8.13;6.03;;;11.50;99.90;;;;;;5049046;28;20644;-64
2023/01/05 09:28:38;;;;;;;16.57;7.37;;;11.50;99.90;;;;;;5051818;28;20166;-64
2023/01/05 09:31:20;;;;;;;13.30;6.53;;;11.40;99.90;;;;;;5051257;28;20181;-63
2023/01/05 09:33:47;;;;;;;16.17;7.53;;;11.40;99.90;;;;;;5051723;28;20622;-63
2023/01/05 09:36:14;;;;;;;7.80;5.03;;;11.50;99.90;;;;;;5052073;28;20648;-64
2023/01/05 09:38:40;;;;;;;21.80;7.13;;;11.60;99.90;;;;;;5051832;28;20631;-63
2023/01/05 09:41:36;;;;;;;25.03;6.20;;;11.60;99.90;;;;;;5051703;28;20210;-64
2023/01/05 09:44:09;;;;;;;17.77;6.83;;;11.60;99.90;;;;;;5051622;28;20655;-63
2023/01/05 09:46:42;;;;;;;11.30;6.63;;;11.70;99.90;;;;;;5052037;28;20163;-63
2023/01/05 09:49:14;;;;;;;7.53;6.27;;;11.70;99.90;;;;;;5051870;28;20229;-63
2023/01/05 09:51:40;;;;;;;17.57;6.10;;;11.70;99.90;;;;;;5052129;28;20576;-64
2023/01/05 09:54:09;;;;;;;12.90;6.90;;;11.80;99.90;;;;;;5051676;28;20182;-64
2023/01/05 09:56:42;;;;;;;15.63;5.83;;;11.80;99.90;;;;;;5051765;28;20167;-63
2023/01/05 09:59:28;;;;;;;10.37;6.20;;;11.80;99.90;;;;;;5048756;28;20202;-64
2023/01/05 10:01:58;;;;;;;11.90;5.83;;;11.90;99.90;;;;;;5051426;28;20604;-64
2023/01/05 10:04:25;;;;;;;15.67;5.60;;;11.90;99.90;;;;;;5051496;28;20587;-64
2023/01/05 10:07:07;;;;;;;9.80;6.17;;;11.90;99.90;;;;;;5051716;28;20257;-63
2023/01/05 10:09:38;;;;;;;22.27;7.33;;;11.90;99.90;;;;;;5051428;28;20183;-64
2023/01/05 10:15:16;;;;;;;19.73;8.57;;;12.00;99.90;;;;;;5051405;28;20185;-64
2023/01/05 10:17:43;;;;;;;10.30;8.27;;;12.10;99.90;;;;;;5031798;28;20191;-64
2023/01/05 10:20:36;;;;;;;9.63;6.13;;;12.10;99.90;;;;;;5031252;28;20704;-64
2023/01/05 10:23:20;;;;;;;11.03;7.37;;;12.20;99.90;;;;;;5042575;28;20202;-64
2023/01/05 10:25:58;;;;;;;13.10;6.97;;;12.20;99.90;;;;;;5051332;28;20551;-65
2023/01/05 10:28:35;;;;;;;6.63;5.37;;;12.40;99.90;;;;;;5051626;28;20174;-64
2023/01/05 10:31:07;;;;;;;14.03;6.27;;;12.40;99.90;;;;;;5039776;28;20185;-64
2023/01/05 10:33:45;;;;;;;10.13;7.30;;;12.40;99.90;;;;;;5048902;28;20183;-65
2023/01/05 10:36:31;;;;;;;7.87;5.03;;;12.40;99.90;;;;;;5051118;28;20190;-64
2023/01/05 10:39:16;;;;;;;21.13;6.37;;;12.40;99.90;;;;;;5051975;28;20203;-64
2023/01/05 10:42:02;;;;;;;7.10;5.67;;;12.40;99.90;;;;;;5053304;28;20198;-65
2023/01/05 10:44:36;;;;;;;7.40;6.27;;;12.30;99.90;;;;;;5055718;28;20170;-64
2023/01/05 10:47:02;;;;;;;10.30;6.13;;;12.30;99.90;;;;;;5033958;28;20184;-64
2023/01/05 10:49:30;;;;;;;10.60;7.23;;;12.30;99.90;;;;;;5034924;28;20199;-65
2023/01/05 10:51:58;;;;;;;11.73;5.77;;;12.40;99.90;;;;;;5054422;28;20202;-64
2023/01/05 10:54:38;;;;;;;8.17;5.80;;;12.50;99.90;;;;;;5054962;28;20167;-64
2023/01/05 10:57:28;;;;;;;196.97;28.63;;;12.50;99.90;;;;;;5054645;28;20175;-64
2023/01/05 11:00:00;;;;;;;12.23;7.73;;;12.60;99.90;;;;;;5054437;28;20572;-64
2023/01/05 11:02:34;;;;;;;17.90;13.57;;;12.60;99.90;;;;;;5045408;28;20203;-64
2023/01/05 11:05:08;;;;;;;11.50;5.87;;;12.60;99.90;;;;;;5037172;28;20737;-64
2023/01/05 11:07:53;;;;;;;15.07;5.67;;;12.60;99.90;;;;;;5054197;28;20270;-64
2023/01/05 11:10:30;;;;;;;15.60;5.90;;;12.60;99.90;;;;;;5054227;28;20649;-64
2023/01/05 11:13:03;;;;;;;7.20;6.57;;;12.70;99.90;;;;;;5054901;28;20537;-64
2023/01/05 11:15:32;;;;;;;11.93;7.13;;;12.70;99.90;;;;;;5054368;28;20253;-64
2023/01/05 11:17:58;;;;;;;16.23;10.83;;;12.60;99.90;;;;;;5054696;28;20245;-64
2023/01/05 11:20:27;;;;;;;13.13;6.17;;;12.60;99.90;;;;;;5054384;28;20631;-64
2023/01/05 11:22:54;;;;;;;8.63;5.60;;;12.50;99.90;;;;;;5054244;28;20336;-64
2023/01/05 11:25:31;;;;;;;12.33;6.10;;;12.50;99.90;;;;;;5053906;28;20246;-63
2023/01/05 11:28:12;;;;;;;15.60;6.17;;;12.50;99.90;;;;;;5054108;28;20182;-65
2023/01/05 11:31:02;;;;;;;10.20;5.70;;;12.40;99.90;;;;;;5053333;28;20186;-65
2023/01/05 11:33:32;;;;;;;13.90;5.80;;;12.40;99.90;;;;;;5053964;28;20296;-65
2023/01/05 11:35:58;;;;;;;126.67;30.17;;;12.50;99.90;;;;;;5043581;28;20240;-65
2023/01/05 11:38:27;;;;;;;21.30;7.93;;;12.50;99.90;;;;;;5033864;28;20207;-64
2023/01/05 11:40:55;;;;;;;10.40;5.70;;;12.60;99.90;;;;;;5043218;28;20577;-65
2023/01/05 11:43:24;;;;;;;30.67;25.37;;;12.60;99.90;;;;;;5054025;28;20659;-65
2023/01/05 11:45:53;;;;;;;10.90;6.47;;;12.60;99.90;;;;;;5053462;28;20174;-65
2023/01/05 11:48:24;;;;;;;8.93;6.00;;;12.60;99.90;;;;;;5051346;28;20305;-65
2023/01/05 11:50:53;;;;;;;17.97;5.27;;;12.70;99.90;;;;;;5047739;28;20648;-65
2023/01/05 11:53:22;;;;;;;8.37;6.10;;;12.70;99.90;;;;;;5053299;28;20178;-64
2023/01/05 11:56:18;;;;;;;12.10;6.00;;;12.80;99.90;;;;;;5053526;28;20536;-64
2023/01/05 11:58:46;;;;;;;11.40;6.20;;;12.90;99.90;;;;;;5042675;28;20222;-65
2023/01/05 12:01:43;;;;;;;11.50;5.17;;;13.00;99.90;;;;;;5052869;28;20191;-64
2023/01/05 12:04:36;;;;;;;13.03;5.33;;;13.10;99.90;;;;;;5054033;28;20261;-64
2023/01/05 12:07:22;;;;;;;10.10;5.07;;;13.00;99.90;;;;;;5035170;28;20594;-64
2023/01/05 12:10:03;;;;;;;18.67;5.60;;;13.00;99.90;;;;;;5035485;28;20674;-65
2023/01/05 12:13:04;;;;;;;9.93;5.73;;;13.00;99.90;;;;;;5053272;28;20194;-64
2023/01/05 12:15:56;;;;;;;7.07;6.40;;;13.10;99.90;;;;;;5030073;28;20179;-64
2023/01/05 12:18:43;;;;;;;15.33;5.93;;;13.20;99.90;;;;;;5044489;28;20218;-64
2023/01/05 12:21:28;;;;;;;10.43;6.47;;;13.40;99.90;;;;;;5052610;28;20246;-64
2023/01/05 12:24:19;;;;;;;6.87;5.10;;;13.40;99.90;;;;;;5052997;28;20178;-64
2023/01/05 12:26:53;;;;;;;9.70;5.17;;;13.40;99.90;;;;;;5053062;28;20261;-64
2023/01/05 12:29:57;;;;;;;11.03;4.43;;;13.30;99.90;;;;;;5052894;28;20530;-64
2023/01/05 12:32:27;;;;;;;7.73;4.93;;;13.20;99.90;;;;;;5052643;28;20221;-65
2023/01/05 12:35:19;;;;;;;13.43;5.17;;;13.20;99.90;;;;;;5052819;28;20768;-64
2023/01/05 12:38:24;;;;;;;11.63;5.37;;;13.10;99.90;;;;;;5032949;28;20233;-65
2023/01/05 12:41:17;;;;;;;7.90;5.43;;;13.00;99.90;;;;;;5017143;28;20213;-64
2023/01/05 12:43:48;;;;;;;7.70;5.30;;;12.90;99.90;;;;;;5052477;28;20190;-65
2023/01/05 12:46:45;;;;;;;7.10;5.13;;;12.90;99.90;;;;;;5052420;28;20361;-65
2023/01/05 12:49:16;;;;;;;12.83;5.57;;;12.80;99.90;;;;;;5052500;28;20210;-65
2023/01/05 12:52:27;;;;;;;13.33;6.57;;;12.80;99.90;;;;;;5052232;28;20234;-65
2023/01/05 12:55:19;;;;;;;13.87;6.73;;;12.80;99.90;;;;;;5030091;28;20203;-65
2023/01/05 12:57:49;;;;;;;8.87;5.13;;;12.70;99.90;;;;;;5050856;28;20592;-65
2023/01/05 13:00:18;;;;;;;12.53;5.63;;;12.60;99.90;;;;;;5050544;28;20668;-65
2023/01/05 13:03:16;;;;;;;9.20;5.83;;;12.70;99.90;;;;;;5052320;28;20249;-65
2023/01/05 13:06:27;;;;;;;15.90;6.50;;;12.60;99.90;;;;;;5051060;28;20195;-67
2023/01/05 13:09:08;;;;;;;17.70;6.03;;;12.70;99.90;;;;;;5030178;28;20286;-65
2023/01/05 13:11:40;;;;;;;11.67;6.07;;;12.70;99.90;;;;;;5041465;28;20194;-65
2023/01/05 13:14:10;;;;;;;13.23;5.67;;;12.80;99.90;;;;;;5051970;28;20224;-65
2023/01/05 13:16:41;;;;;;;18.03;8.53;;;12.90;99.90;;;;;;5051891;28;20213;-65
2023/01/05 13:19:23;;;;;;;22.87;7.90;;;13.10;99.90;;;;;;5051844;28;20220;-65
2023/01/05 13:21:50;;;;;;;9.23;6.03;;;13.20;99.90;;;;;;5051639;28;20260;-65
2023/01/05 13:24:38;;;;;;;7.43;6.03;;;13.30;99.90;;;;;;5051862;28;20625;-65
2023/01/05 13:27:04;;;;;;;18.33;6.83;;;13.30;99.90;;;;;;5051571;28;20325;-65
2023/01/05 13:29:39;;;;;;;11.07;7.13;;;13.30;99.90;;;;;;5046775;28;20589;-65
2023/01/05 13:32:23;;;;;;;21.93;6.70;;;13.20;99.90;;;;;;5081886;22;20228;-64
2023/01/05 13:35:01;;;;;;;10.37;5.50;;;13.10;99.90;;;;;;5059390;28;20232;-64